sensor_id;sensor_type;location;lat;lon;timestamp;pressure;altitude;pressure_sealevel;temperature;humidity
47374;BME280;33123;50.118;10.272;2022-10-23T00:01:14;97823.31;;;12.75;78.28
47374;BME280;33123;50.118;10.272;2022-10-23T00:03:41;97823.84;;;12.72;78.01
47374;BME280;33123;50.118;10.272;2022-10-23T00:06:08;97820.91;;;12.68;77.31
47374;BME280;33123;50.118;10.272;2022-10-23T00:08:35;97825.69;;;12.66;77.23
47374;BME280;33123;50.118;10.272;2022-10-23T00:11:05;97823.78;;;12.62;77.12
47374;BME280;33123;50.118;10.272;2022-10-23T00:13:32;97814.25;;;12.56;77.53
47374;BME280;33123;50.118;10.272;2022-10-23T00:15:59;97824.81;;;12.56;77.49
47374;BME280;33123;50.118;10.272;2022-10-23T00:18:26;97819.22;;;12.52;77.50
47374;BME280;33123;50.118;10.272;2022-10-23T00:20:53;97817.09;;;12.49;77.31
47374;BME280;33123;50.118;10.272;2022-10-23T00:23:19;97816.56;;;12.47;77.54
47374;BME280;33123;50.118;10.272;2022-10-23T00:25:46;97811.78;;;12.44;78.17
47374;BME280;33123;50.118;10.272;2022-10-23T00:28:12;97819.16;;;12.42;77.87
47374;BME280;33123;50.118;10.272;2022-10-23T00:30:39;97819.69;;;12.39;78.04
47374;BME280;33123;50.118;10.272;2022-10-23T00:33:07;97822.56;;;12.37;77.81
47374;BME280;33123;50.118;10.272;2022-10-23T00:35:37;97815.41;;;12.33;77.86
47374;BME280;33123;50.118;10.272;2022-10-23T00:38:04;97819.09;;;12.32;78.62
47374;BME280;33123;50.118;10.272;2022-10-23T00:40:30;97810.09;;;12.28;78.57
47374;BME280;33123;50.118;10.272;2022-10-23T00:42:57;97807.94;;;12.25;78.77
47374;BME280;33123;50.118;10.272;2022-10-23T00:45:25;97808.47;;;12.22;79.22
47374;BME280;33123;50.118;10.272;2022-10-23T00:47:53;97807.91;;;12.20;79.02
47374;BME280;33123;50.118;10.272;2022-10-23T00:50:24;97814.25;;;12.19;78.55
47374;BME280;33123;50.118;10.272;2022-10-23T00:52:53;97811.06;;;12.17;78.23
47374;BME280;33123;50.118;10.272;2022-10-23T00:55:22;97806.28;;;12.13;77.64
47374;BME280;33123;50.118;10.272;2022-10-23T00:57:50;97806.81;;;12.10;76.72
47374;BME280;33123;50.118;10.272;2022-10-23T01:00:20;97807.78;;;12.04;76.87
47374;BME280;33123;50.118;10.272;2022-10-23T01:02:47;97810.16;;;12.01;77.10
47374;BME280;33123;50.118;10.272;2022-10-23T01:05:14;97789.38;;;11.82;77.21
47374;BME280;33123;50.118;10.272;2022-10-23T01:07:49;97813.78;;;11.95;76.77
47374;BME280;33123;50.118;10.272;2022-10-23T01:10:22;97803.16;;;11.84;76.84
47374;BME280;33123;50.118;10.272;2022-10-23T01:13:00;97795.75;;;11.86;76.96
47374;BME280;33123;50.118;10.272;2022-10-23T01:15:33;97807.13;;;11.87;77.29
47374;BME280;33123;50.118;10.272;2022-10-23T01:18:07;97796.00;;;11.85;77.86
47374;BME280;33123;50.118;10.272;2022-10-23T01:20:41;97805.22;;;11.82;77.98
47374;BME280;33123;50.118;10.272;2022-10-23T01:23:31;97806.03;;;11.83;78.17
47374;BME280;33123;50.118;10.272;2022-10-23T01:26:14;97804.44;;;11.82;78.78
47374;BME280;33123;50.118;10.272;2022-10-23T01:28:48;97796.50;;;11.82;78.80
47374;BME280;33123;50.118;10.272;2022-10-23T01:31:20;97799.16;;;11.82;79.07
47374;BME280;33123;50.118;10.272;2022-10-23T01:33:53;97797.53;;;11.81;78.97
47374;BME280;33123;50.118;10.272;2022-10-23T01:36:25;97793.88;;;11.82;79.44
47374;BME280;33123;50.118;10.272;2022-10-23T01:38:55;97784.31;;;11.81;79.94
47374;BME280;33123;50.118;10.272;2022-10-23T01:41:27;97785.94;;;11.82;79.74
47374;BME280;33123;50.118;10.272;2022-10-23T01:44:00;97757.25;;;11.63;79.88
47374;BME280;33123;50.118;10.272;2022-10-23T01:46:30;97785.44;;;11.85;80.42
47374;BME280;33123;50.118;10.272;2022-10-23T01:49:01;97785.19;;;11.86;80.61
47374;BME280;33123;50.118;10.272;2022-10-23T01:51:30;97785.50;;;11.90;80.63
47374;BME280;33123;50.118;10.272;2022-10-23T01:53:59;97773.34;;;11.89;80.60
47374;BME280;33123;50.118;10.272;2022-10-23T01:56:29;97781.31;;;11.94;80.20
47374;BME280;33123;50.118;10.272;2022-10-23T01:59:01;97773.13;;;11.96;79.66
47374;BME280;33123;50.118;10.272;2022-10-23T02:01:29;97769.69;;;11.95;79.76
47374;BME280;33123;50.118;10.272;2022-10-23T02:03:59;97778.41;;;11.96;79.28
47374;BME280;33123;50.118;10.272;2022-10-23T02:06:27;97695.34;;;11.44;79.15
47374;BME280;33123;50.118;10.272;2022-10-23T02:08:53;97776.81;;;11.95;79.50
47374;BME280;33123;50.118;10.272;2022-10-23T02:11:20;97771.53;;;11.95;79.26
47374;BME280;33123;50.118;10.272;2022-10-23T02:13:53;97765.97;;;11.91;79.89
47374;BME280;33123;50.118;10.272;2022-10-23T02:16:27;97769.69;;;11.95;80.07
47374;BME280;33123;50.118;10.272;2022-10-23T02:19:06;97762.22;;;11.87;80.32
47374;BME280;33123;50.118;10.272;2022-10-23T02:21:40;97753.00;;;11.89;79.81
47374;BME280;33123;50.118;10.272;2022-10-23T02:24:15;97758.78;;;11.86;80.23
47374;BME280;33123;50.118;10.272;2022-10-23T02:26:49;97764.31;;;11.85;80.25
47374;BME280;33123;50.118;10.272;2022-10-23T02:29:19;97765.13;;;11.85;80.21
47374;BME280;33123;50.118;10.272;2022-10-23T02:31:48;97755.09;;;11.87;79.79
47374;BME280;33123;50.118;10.272;2022-10-23T02:34:14;97747.34;;;11.81;79.49
47374;BME280;33123;50.118;10.272;2022-10-23T02:36:41;97726.97;;;11.76;79.88
47374;BME280;33123;50.118;10.272;2022-10-23T02:39:08;97739.44;;;11.81;80.25
47374;BME280;33123;50.118;10.272;2022-10-23T02:41:38;97741.63;;;11.84;80.63
47374;BME280;33123;50.118;10.272;2022-10-23T02:44:16;97745.31;;;11.88;80.05
47374;BME280;33123;50.118;10.272;2022-10-23T02:46:53;97742.16;;;11.86;79.75
47374;BME280;33123;50.118;10.272;2022-10-23T02:49:25;97746.38;;;11.87;79.65
47374;BME280;33123;50.118;10.272;2022-10-23T02:52:02;97747.44;;;11.86;79.20
47374;BME280;33123;50.118;10.272;2022-10-23T02:54:41;97742.66;;;11.83;79.78
47374;BME280;33123;50.118;10.272;2022-10-23T02:57:16;97673.59;;;11.37;79.54
47374;BME280;33123;50.118;10.272;2022-10-23T02:59:51;97734.66;;;11.78;79.61
47374;BME280;33123;50.118;10.272;2022-10-23T03:02:27;97733.88;;;11.77;81.45
47374;BME280;33123;50.118;10.272;2022-10-23T03:04:59;97729.38;;;11.78;81.55
47374;BME280;33123;50.118;10.272;2022-10-23T03:07:27;97735.78;;;11.82;81.54
47374;BME280;33123;50.118;10.272;2022-10-23T03:09:53;97736.34;;;11.84;81.52
47374;BME280;33123;50.118;10.272;2022-10-23T03:12:20;97744.78;;;11.86;81.24
47374;BME280;33123;50.118;10.272;2022-10-23T03:14:47;97745.31;;;11.88;80.81
47374;BME280;33123;50.118;10.272;2022-10-23T03:17:13;97740.03;;;11.88;80.60
47374;BME280;33123;50.118;10.272;2022-10-23T03:19:41;97739.00;;;11.89;80.63
47374;BME280;33123;50.118;10.272;2022-10-23T03:22:08;97735.56;;;11.88;80.51
47374;BME280;33123;50.118;10.272;2022-10-23T03:24:34;97736.38;;;11.89;80.50
47374;BME280;33123;50.118;10.272;2022-10-23T03:27:01;97727.66;;;11.88;80.25
47374;BME280;33123;50.118;10.272;2022-10-23T03:29:27;97722.59;;;11.87;81.36
47374;BME280;33123;50.118;10.272;2022-10-23T03:31:54;97712.84;;;11.87;83.06
47374;BME280;33123;50.118;10.272;2022-10-23T03:34:21;97716.03;;;11.89;83.34
47374;BME280;33123;50.118;10.272;2022-10-23T03:36:48;97721.59;;;11.93;83.06
47374;BME280;33123;50.118;10.272;2022-10-23T03:39:15;97721.66;;;12.03;82.39
47374;BME280;33123;50.118;10.272;2022-10-23T03:41:44;97323.06;;;9.55;81.86
47374;BME280;33123;50.118;10.272;2022-10-23T03:44:10;97615.03;;;11.35;81.92
47374;BME280;33123;50.118;10.272;2022-10-23T03:46:37;97364.13;;;9.83;81.79
47374;BME280;33123;50.118;10.272;2022-10-23T03:49:05;97455.53;;;10.41;81.25
47374;BME280;33123;50.118;10.272;2022-10-23T03:51:32;97501.63;;;10.71;82.09
47374;BME280;33123;50.118;10.272;2022-10-23T03:54:00;97407.91;;;10.21;81.61
47374;BME280;33123;50.118;10.272;2022-10-23T03:56:30;97606.44;;;11.50;82.22
47374;BME280;33123;50.118;10.272;2022-10-23T03:58:56;97553.66;;;11.13;81.91
47374;BME280;33123;50.118;10.272;2022-10-23T04:01:25;97378.28;;;10.03;81.34
47374;BME280;33123;50.118;10.272;2022-10-23T04:03:52;97332.50;;;9.77;81.12
47374;BME280;33123;50.118;10.272;2022-10-23T04:06:19;97417.47;;;10.27;81.63
47374;BME280;33123;50.118;10.272;2022-10-23T04:08:46;97599.50;;;11.39;81.94
47374;BME280;33123;50.118;10.272;2022-10-23T04:11:14;97614.09;;;11.51;81.99
47374;BME280;33123;50.118;10.272;2022-10-23T04:13:41;97415.22;;;10.14;81.72
47374;BME280;33123;50.118;10.272;2022-10-23T04:16:08;97463.00;;;10.49;82.17
47374;BME280;33123;50.118;10.272;2022-10-23T04:18:39;97713.31;;;12.17;82.79
47374;BME280;33123;50.118;10.272;2022-10-23T04:21:09;97504.41;;;10.86;82.74
47374;BME280;33123;50.118;10.272;2022-10-23T04:23:39;97406.88;;;10.22;81.84
47374;BME280;33123;50.118;10.272;2022-10-23T04:26:18;97555.25;;;11.14;81.13
47374;BME280;33123;50.118;10.272;2022-10-23T04:28:48;97513.31;;;10.80;80.04
47374;BME280;33123;50.118;10.272;2022-10-23T04:31:15;97640.25;;;11.58;79.85
47374;BME280;33123;50.118;10.272;2022-10-23T04:33:51;97634.69;;;11.54;79.96
47374;BME280;33123;50.118;10.272;2022-10-23T04:36:21;97384.47;;;9.92;80.11
47374;BME280;33123;50.118;10.272;2022-10-23T04:38:53;97628.03;;;11.47;80.73
47374;BME280;33123;50.118;10.272;2022-10-23T04:41:25;97376.94;;;9.74;80.66
47374;BME280;33123;50.118;10.272;2022-10-23T04:44:00;97450.38;;;10.24;80.56
47374;BME280;33123;50.118;10.272;2022-10-23T04:46:27;97683.09;;;11.70;81.25
47374;BME280;33123;50.118;10.272;2022-10-23T04:48:58;97413.44;;;9.92;80.97
47374;BME280;33123;50.118;10.272;2022-10-23T04:51:27;97741.69;;;11.99;81.40
47374;BME280;33123;50.118;10.272;2022-10-23T04:54:00;97403.91;;;9.86;81.16
47374;BME280;33123;50.118;10.272;2022-10-23T04:56:34;97596.88;;;11.06;81.36
47374;BME280;33123;50.118;10.272;2022-10-23T04:59:11;97751.47;;;11.99;81.32
47374;BME280;33123;50.118;10.272;2022-10-23T05:01:39;97570.81;;;10.83;81.11
47374;BME280;33123;50.118;10.272;2022-10-23T05:04:07;97736.94;;;11.96;80.76
47374;BME280;33123;50.118;10.272;2022-10-23T05:06:34;97736.94;;;11.96;80.18
47374;BME280;33123;50.118;10.272;2022-10-23T05:09:00;97725.03;;;11.94;79.96
47374;BME280;33123;50.118;10.272;2022-10-23T05:11:27;97727.13;;;11.92;80.03
47374;BME280;33123;50.118;10.272;2022-10-23T05:13:55;97721.56;;;11.88;79.63
47374;BME280;33123;50.118;10.272;2022-10-23T05:16:30;97726.84;;;11.88;79.75
47374;BME280;33123;50.118;10.272;2022-10-23T05:18:59;97724.19;;;11.83;79.60
47374;BME280;33123;50.118;10.272;2022-10-23T05:21:28;97722.78;;;11.80;79.03
47374;BME280;33123;50.118;10.272;2022-10-23T05:23:55;97722.50;;;11.77;78.59
47374;BME280;33123;50.118;10.272;2022-10-23T05:26:22;97715.34;;;11.72;78.60
47374;BME280;33123;50.118;10.272;2022-10-23T05:28:49;97711.09;;;11.66;78.54
47374;BME280;33123;50.118;10.272;2022-10-23T05:31:18;97705.50;;;11.62;78.87
47374;BME280;33123;50.118;10.272;2022-10-23T05:33:45;97699.91;;;11.59;79.06
47374;BME280;33123;50.118;10.272;2022-10-23T05:36:12;97701.22;;;11.56;78.93
47374;BME280;33123;50.118;10.272;2022-10-23T05:38:39;97698.03;;;11.54;78.95
47374;BME280;33123;50.118;10.272;2022-10-23T05:41:06;97692.22;;;11.52;79.08
47374;BME280;33123;50.118;10.272;2022-10-23T05:43:32;97692.47;;;11.51;79.25
47374;BME280;33123;50.118;10.272;2022-10-23T05:46:03;97683.19;;;11.48;79.88
47374;BME280;33123;50.118;10.272;2022-10-23T05:48:31;97692.97;;;11.48;81.74
47374;BME280;33123;50.118;10.272;2022-10-23T05:51:02;97697.00;;;11.55;82.72
47374;BME280;33123;50.118;10.272;2022-10-23T05:53:28;97701.28;;;11.61;84.47
47374;BME280;33123;50.118;10.272;2022-10-23T05:55:55;97705.59;;;11.73;84.09
47374;BME280;33123;50.118;10.272;2022-10-23T05:58:21;97701.44;;;11.82;84.49
47374;BME280;33123;50.118;10.272;2022-10-23T06:00:48;97699.41;;;11.89;85.04
47374;BME280;33123;50.118;10.272;2022-10-23T06:03:14;97698.66;;;11.99;83.97
47374;BME280;33123;50.118;10.272;2022-10-23T06:05:48;97698.69;;;12.04;83.00
47374;BME280;33123;50.118;10.272;2022-10-23T06:08:14;97716.97;;;12.10;82.99
47374;BME280;33123;50.118;10.272;2022-10-23T06:10:41;97724.09;;;12.15;82.15
47374;BME280;33123;50.118;10.272;2022-10-23T06:13:07;97731.81;;;12.17;81.39
47374;BME280;33123;50.118;10.272;2022-10-23T06:15:34;97729.69;;;12.19;80.77
47374;BME280;33123;50.118;10.272;2022-10-23T06:18:01;97714.88;;;12.12;80.30
47374;BME280;33123;50.118;10.272;2022-10-23T06:20:28;97724.94;;;12.21;79.74
47374;BME280;33123;50.118;10.272;2022-10-23T06:22:56;97717.81;;;12.21;80.12
47374;BME280;33123;50.118;10.272;2022-10-23T06:25:23;97724.44;;;12.24;80.02
47374;BME280;33123;50.118;10.272;2022-10-23T06:27:50;97717.03;;;12.26;80.26
47374;BME280;33123;50.118;10.272;2022-10-23T06:30:16;97713.91;;;12.29;80.13
47374;BME280;33123;50.118;10.272;2022-10-23T06:32:43;97709.16;;;12.31;80.86
47374;BME280;33123;50.118;10.272;2022-10-23T06:35:10;97716.56;;;12.34;80.01
47374;BME280;33123;50.118;10.272;2022-10-23T06:37:36;97701.78;;;12.38;80.10
47374;BME280;33123;50.118;10.272;2022-10-23T06:40:05;97708.69;;;12.44;79.51
47374;BME280;33123;50.118;10.272;2022-10-23T06:42:33;97700.25;;;12.47;79.42
47374;BME280;33123;50.118;10.272;2022-10-23T06:45:00;97702.91;;;12.52;79.53
47374;BME280;33123;50.118;10.272;2022-10-23T06:47:26;97706.09;;;12.59;80.41
47374;BME280;33123;50.118;10.272;2022-10-23T06:49:53;97708.53;;;12.66;81.05
47374;BME280;33123;50.118;10.272;2022-10-23T06:52:19;97706.19;;;12.80;81.83
47374;BME280;33123;50.118;10.272;2022-10-23T06:54:46;97694.31;;;12.92;81.79
47374;BME280;33123;50.118;10.272;2022-10-23T06:57:14;97700.44;;;13.08;81.87
47374;BME280;33123;50.118;10.272;2022-10-23T06:59:40;97700.53;;;13.29;81.17
47374;BME280;33123;50.118;10.272;2022-10-23T07:02:08;97711.09;;;13.49;80.09
47374;BME280;33123;50.118;10.272;2022-10-23T07:04:34;97706.09;;;13.68;79.20
47374;BME280;33123;50.118;10.272;2022-10-23T07:07:01;97701.03;;;13.87;78.22
47374;BME280;33123;50.118;10.272;2022-10-23T07:09:28;97714.56;;;14.06;77.99
47374;BME280;33123;50.118;10.272;2022-10-23T07:11:54;97707.38;;;14.16;76.72
47374;BME280;33123;50.118;10.272;2022-10-23T07:14:22;97712.59;;;14.42;76.56
47374;BME280;33123;50.118;10.272;2022-10-23T07:16:49;97699.84;;;14.59;75.37
47374;BME280;33123;50.118;10.272;2022-10-23T07:19:15;97697.63;;;14.76;74.41
47374;BME280;33123;50.118;10.272;2022-10-23T07:21:42;97691.75;;;14.90;73.97
47374;BME280;33123;50.118;10.272;2022-10-23T07:24:09;97688.16;;;15.10;73.83
47374;BME280;33123;50.118;10.272;2022-10-23T07:26:35;97693.09;;;15.26;72.81
47374;BME280;33123;50.118;10.272;2022-10-23T07:29:02;97689.84;;;15.40;71.84
47374;BME280;33123;50.118;10.272;2022-10-23T07:31:30;97689.16;;;15.63;72.15
47374;BME280;33123;50.118;10.272;2022-10-23T07:33:56;97687.34;;;15.88;71.70
47374;BME280;33123;50.118;10.272;2022-10-23T07:36:23;97677.34;;;16.03;70.91
47374;BME280;33123;50.118;10.272;2022-10-23T07:38:50;97684.56;;;16.51;71.05
47374;BME280;33123;50.118;10.272;2022-10-23T07:41:16;97684.59;;;16.94;68.61
47374;BME280;33123;50.118;10.272;2022-10-23T07:43:43;97680.84;;;17.32;66.75
47374;BME280;33123;50.118;10.272;2022-10-23T07:46:10;97683.38;;;17.75;66.71
47374;BME280;33123;50.118;10.272;2022-10-23T07:48:38;97689.84;;;18.15;64.51
47374;BME280;33123;50.118;10.272;2022-10-23T07:51:07;97691.47;;;18.58;63.86
47374;BME280;33123;50.118;10.272;2022-10-23T07:53:35;97689.38;;;18.96;63.41
47374;BME280;33123;50.118;10.272;2022-10-23T07:56:08;97685.31;;;19.21;61.52
47374;BME280;33123;50.118;10.272;2022-10-23T07:58:35;97684.25;;;19.22;59.21
47374;BME280;33123;50.118;10.272;2022-10-23T08:01:03;97662.22;;;19.03;60.12
47374;BME280;33123;50.118;10.272;2022-10-23T08:03:38;97672.75;;;18.85;60.47
47374;BME280;33123;50.118;10.272;2022-10-23T08:06:05;97671.97;;;18.71;61.38
47374;BME280;33123;50.118;10.272;2022-10-23T08:08:32;97671.69;;;18.59;62.64
47374;BME280;33123;50.118;10.272;2022-10-23T08:10:58;97675.84;;;18.51;62.18
47374;BME280;33123;50.118;10.272;2022-10-23T08:13:25;97681.06;;;18.42;62.58
47374;BME280;33123;50.118;10.272;2022-10-23T08:15:52;97680.00;;;18.43;62.57
47374;BME280;33123;50.118;10.272;2022-10-23T08:18:18;97674.69;;;18.43;62.01
47374;BME280;33123;50.118;10.272;2022-10-23T08:20:47;97678.63;;;18.46;61.64
47374;BME280;33123;50.118;10.272;2022-10-23T08:23:17;97674.84;;;18.61;63.20
47374;BME280;33123;50.118;10.272;2022-10-23T08:25:44;97676.53;;;18.84;62.80
47374;BME280;33123;50.118;10.272;2022-10-23T08:28:12;97679.44;;;19.10;61.46
47374;BME280;33123;50.118;10.272;2022-10-23T08:30:39;97676.84;;;19.41;60.74
47374;BME280;33123;50.118;10.272;2022-10-23T08:33:06;97682.94;;;19.78;59.77
47374;BME280;33123;50.118;10.272;2022-10-23T08:35:35;97680.56;;;20.08;56.68
47374;BME280;33123;50.118;10.272;2022-10-23T08:38:03;97677.38;;;20.37;58.76
47374;BME280;33123;50.118;10.272;2022-10-23T08:40:30;97683.16;;;20.61;58.50
47374;BME280;33123;50.118;10.272;2022-10-23T08:43:00;97678.63;;;20.79;56.19
47374;BME280;33123;50.118;10.272;2022-10-23T08:45:31;97663.69;;;20.95;56.78
47374;BME280;33123;50.118;10.272;2022-10-23T08:48:05;97664.34;;;21.27;56.79
47374;BME280;33123;50.118;10.272;2022-10-23T08:50:40;97657.22;;;21.48;53.63
47374;BME280;33123;50.118;10.272;2022-10-23T08:53:14;97657.19;;;21.83;54.42
47374;BME280;33123;50.118;10.272;2022-10-23T08:55:45;97656.47;;;22.03;52.65
47374;BME280;33123;50.118;10.272;2022-10-23T08:58:16;97659.69;;;22.35;52.17
47374;BME280;33123;50.118;10.272;2022-10-23T09:00:48;97651.81;;;22.59;52.17
47374;BME280;33123;50.118;10.272;2022-10-23T09:03:16;97663.38;;;22.81;50.81
47374;BME280;33123;50.118;10.272;2022-10-23T09:05:53;97661.06;;;23.00;49.20
47374;BME280;33123;50.118;10.272;2022-10-23T09:08:32;97654.13;;;22.99;48.23
47374;BME280;33123;50.118;10.272;2022-10-23T09:11:03;97655.69;;;23.00;48.37
47374;BME280;33123;50.118;10.272;2022-10-23T09:13:55;97656.63;;;23.04;48.66
47374;BME280;33123;50.118;10.272;2022-10-23T09:16:37;97659.22;;;22.92;47.94
47374;BME280;33123;50.118;10.272;2022-10-23T09:19:10;97664.47;;;22.88;48.14
47374;BME280;33123;50.118;10.272;2022-10-23T09:21:49;97657.00;;;22.64;48.51
47374;BME280;33123;50.118;10.272;2022-10-23T09:24:20;97647.91;;;22.48;50.33
47374;BME280;33123;50.118;10.272;2022-10-23T09:26:49;97653.19;;;22.36;49.63
47374;BME280;33123;50.118;10.272;2022-10-23T09:29:21;97646.25;;;22.35;50.29
47374;BME280;33123;50.118;10.272;2022-10-23T09:31:50;97650.25;;;22.29;50.47
47374;BME280;33123;50.118;10.272;2022-10-23T09:34:20;97642.69;;;22.22;50.57
47374;BME280;33123;50.118;10.272;2022-10-23T09:36:48;97644.16;;;22.11;50.77
47374;BME280;33123;50.118;10.272;2022-10-23T09:39:24;97643.72;;;21.92;51.33
47374;BME280;33123;50.118;10.272;2022-10-23T09:41:52;97639.38;;;21.70;50.98
47374;BME280;33123;50.118;10.272;2022-10-23T09:44:21;97638.63;;;21.60;51.86
47374;BME280;33123;50.118;10.272;2022-10-23T09:46:49;97632.97;;;21.45;51.34
47374;BME280;33123;50.118;10.272;2022-10-23T09:49:20;97630.56;;;21.26;52.18
47374;BME280;33123;50.118;10.272;2022-10-23T09:51:52;97631.53;;;21.13;52.72
47374;BME280;33123;50.118;10.272;2022-10-23T09:54:21;97631.06;;;20.93;52.48
47374;BME280;33123;50.118;10.272;2022-10-23T09:56:50;97633.72;;;20.76;53.22
47374;BME280;33123;50.118;10.272;2022-10-23T09:59:22;97634.69;;;20.71;55.33
47374;BME280;33123;50.118;10.272;2022-10-23T10:01:53;97632.16;;;20.66;55.22
47374;BME280;33123;50.118;10.272;2022-10-23T10:04:30;97627.09;;;20.65;54.83
47374;BME280;33123;50.118;10.272;2022-10-23T10:06:57;97607.22;;;20.48;54.12
47374;BME280;33123;50.118;10.272;2022-10-23T10:09:27;97553.72;;;20.09;54.26
47374;BME280;33123;50.118;10.272;2022-10-23T10:11:56;97620.25;;;20.41;53.60
47374;BME280;33123;50.118;10.272;2022-10-23T10:14:49;97608.63;;;20.46;54.25
47374;BME280;33123;50.118;10.272;2022-10-23T10:17:25;97606.44;;;20.56;54.42
47374;BME280;33123;50.118;10.272;2022-10-23T10:20:18;97599.53;;;20.90;53.50
47374;BME280;33123;50.118;10.272;2022-10-23T10:22:51;97595.59;;;21.22;51.48
47374;BME280;33123;50.118;10.272;2022-10-23T10:25:22;97596.50;;;21.52;51.41
47374;BME280;33123;50.118;10.272;2022-10-23T10:28:05;97596.56;;;21.82;51.58
47374;BME280;33123;50.118;10.272;2022-10-23T10:30:43;97594.38;;;22.22;50.05
47374;BME280;33123;50.118;10.272;2022-10-23T10:33:17;97600.84;;;22.51;50.05
47374;BME280;33123;50.118;10.272;2022-10-23T10:35:51;97598.53;;;22.40;47.75
47374;BME280;33123;50.118;10.272;2022-10-23T10:38:22;97588.00;;;22.56;47.88
47374;BME280;33123;50.118;10.272;2022-10-23T10:41:09;97578.69;;;22.54;47.93
47374;BME280;33123;50.118;10.272;2022-10-23T10:43:43;97575.34;;;22.57;48.50
47374;BME280;33123;50.118;10.272;2022-10-23T10:46:18;97581.06;;;22.55;49.54
47374;BME280;33123;50.118;10.272;2022-10-23T10:48:56;97583.00;;;22.46;47.01
47374;BME280;33123;50.118;10.272;2022-10-23T10:51:28;97583.31;;;22.24;48.10
47374;BME280;33123;50.118;10.272;2022-10-23T10:54:10;97581.66;;;22.10;47.92
47374;BME280;33123;50.118;10.272;2022-10-23T10:56:46;97443.38;;;21.45;48.66
47374;BME280;33123;50.118;10.272;2022-10-23T10:59:15;97578.75;;;22.45;47.77
47374;BME280;33123;50.118;10.272;2022-10-23T11:01:51;97433.50;;;21.67;46.90
47374;BME280;33123;50.118;10.272;2022-10-23T11:04:27;97435.59;;;21.82;46.38
47374;BME280;33123;50.118;10.272;2022-10-23T11:06:57;97329.56;;;21.34;46.56
47374;BME280;33123;50.118;10.272;2022-10-23T11:09:27;97566.78;;;23.05;46.08
47374;BME280;33123;50.118;10.272;2022-10-23T11:11:56;97556.56;;;22.99;45.91
47374;BME280;33123;50.118;10.272;2022-10-23T11:14:24;97561.03;;;23.28;47.54
47374;BME280;33123;50.118;10.272;2022-10-23T11:16:52;97554.66;;;23.32;44.90
47374;BME280;33123;50.118;10.272;2022-10-23T11:19:23;97546.69;;;23.24;45.44
47374;BME280;33123;50.118;10.272;2022-10-23T11:21:55;97542.06;;;23.12;45.71
47374;BME280;33123;50.118;10.272;2022-10-23T11:27:44;97525.22;;;22.82;47.69
47374;BME280;33123;50.118;10.272;2022-10-23T11:30:21;97518.13;;;22.98;47.09
47374;BME280;33123;50.118;10.272;2022-10-23T11:33:02;97510.13;;;23.10;45.99
47374;BME280;33123;50.118;10.272;2022-10-23T11:35:43;97509.25;;;23.31;45.73
47374;BME280;33123;50.118;10.272;2022-10-23T11:38:16;97515.13;;;23.45;45.75
47374;BME280;33123;50.118;10.272;2022-10-23T11:40:45;97509.69;;;23.66;45.34
47374;BME280;33123;50.118;10.272;2022-10-23T11:43:25;97514.72;;;23.67;44.35
47374;BME280;33123;50.118;10.272;2022-10-23T11:45:52;97502.13;;;23.47;44.57
47374;BME280;33123;50.118;10.272;2022-10-23T11:48:22;97504.56;;;23.28;44.53
47374;BME280;33123;50.118;10.272;2022-10-23T11:50:50;97497.78;;;23.09;45.51
47374;BME280;33123;50.118;10.272;2022-10-23T11:53:25;97488.72;;;22.81;45.63
47374;BME280;33123;50.118;10.272;2022-10-23T11:55:58;97484.88;;;22.70;46.50
47374;BME280;33123;50.118;10.272;2022-10-23T11:58:29;97468.84;;;22.40;47.05
47374;BME280;33123;50.118;10.272;2022-10-23T12:01:18;97479.47;;;22.16;48.08
47374;BME280;33123;50.118;10.272;2022-10-23T12:03:52;97484.59;;;22.00;48.74
47374;BME280;33123;50.118;10.272;2022-10-23T12:06:22;97469.06;;;21.76;49.86
47374;BME280;33123;50.118;10.272;2022-10-23T12:08:54;97451.94;;;21.68;50.47
47374;BME280;33123;50.118;10.272;2022-10-23T12:11:25;97431.94;;;21.57;51.20
47374;BME280;33123;50.118;10.272;2022-10-23T12:13:54;97418.91;;;21.47;51.95
47374;BME280;33123;50.118;10.272;2022-10-23T12:16:20;97428.13;;;21.28;52.36
47374;BME280;33123;50.118;10.272;2022-10-23T12:18:50;97446.63;;;21.13;52.36
47374;BME280;33123;50.118;10.272;2022-10-23T12:21:22;97465.09;;;21.05;52.89
47374;BME280;33123;50.118;10.272;2022-10-23T12:24:13;97476.31;;;20.99;53.28
47374;BME280;33123;50.118;10.272;2022-10-23T12:26:56;97479.44;;;20.92;54.41
47374;BME280;33123;50.118;10.272;2022-10-23T12:29:36;97480.09;;;20.89;52.58
47374;BME280;33123;50.118;10.272;2022-10-23T12:32:18;97472.38;;;20.88;52.85
47374;BME280;33123;50.118;10.272;2022-10-23T12:34:57;97467.66;;;20.76;54.11
47374;BME280;33123;50.118;10.272;2022-10-23T12:37:44;97462.28;;;20.76;53.63
47374;BME280;33123;50.118;10.272;2022-10-23T12:40:16;97467.19;;;20.74;53.69
47374;BME280;33123;50.118;10.272;2022-10-23T12:42:49;97434.13;;;20.61;53.81
47374;BME280;33123;50.118;10.272;2022-10-23T12:45:21;97437.25;;;20.80;53.91
47374;BME280;33123;50.118;10.272;2022-10-23T12:47:50;97436.13;;;20.81;53.69
47374;BME280;33123;50.118;10.272;2022-10-23T12:50:18;97431.09;;;20.89;54.80
47374;BME280;33123;50.118;10.272;2022-10-23T12:52:53;97421.59;;;21.00;54.55
47374;BME280;33123;50.118;10.272;2022-10-23T12:55:20;97420.16;;;21.11;54.38
47374;BME280;33123;50.118;10.272;2022-10-23T12:57:49;97417.41;;;21.28;53.42
47374;BME280;33123;50.118;10.272;2022-10-23T13:00:23;97409.63;;;21.44;52.66
47374;BME280;33123;50.118;10.272;2022-10-23T13:02:58;97396.31;;;21.56;52.76
47374;BME280;33123;50.118;10.272;2022-10-23T13:05:27;97408.22;;;21.68;53.35
47374;BME280;33123;50.118;10.272;2022-10-23T13:07:56;97401.31;;;21.67;52.56
47374;BME280;33123;50.118;10.272;2022-10-23T13:10:24;97410.25;;;21.71;52.35